Brough, United Kingdom
Current Conditions -  °F | °C
As of 11:20 AM on Friday 24 Oct 2014 (Local Time) from EGNJ Reporting Station
Broken Clouds Broken Clouds  
Wind Chill: 14°   Ceiling: 1800
Heat Index: 14°   Visibility: 6mi
Dew Point: 12°   Wind: 6mph
Humidity: 88%   Direction: 280°W
Pressure: 29.88"   Gusts: NA
Location:  53.7°N, 0.58°W
Report Text: EGNJ 241020Z 28005KT 9999 SCT008 BKN018 14/12 Q1012
Loading
Personal Weather Stations






























Interactive Weather Map
Tropical Storm Tracking
New forecast layout! Learn more

10-Day Weather Forecast

Advertisements
Track Severe Weather on mobile